Relevés horaires Oostende (Belgique)


Relevés horaires à Oostende - Vendredi 19 Nov. 2021
Heure UTC1 Température [°C] Vent [km/h] Hum. [%] Pres.4 [hPa] Visi. [Km] Nébu. [octa] Préc.5 [mm] Cond.
2m. Res. Ros. Dir.2 Vit. Moy. Raf.3
23:00 10.3 10.3 7.7 O 3.7 5.6 7.4 84 1030.6(-0.9/3h) 25 7/8 -- --
22:00 10.6 10.6 7.6 ONO 3.7 5.6 7.4 82 1030.9(-0.3/3h) 25 7/8 -- --
21:00 10.3 10.3 8.5 SO 3.7 7.4 9.3 89 1031.1(0.1/3h) 20 7/8 -- --
20:00 10.2 9.8 8.8 SSO 5.6 7.4 9.3 91 1031.4(0.5/3h) 30 7/8 -- --
19:00 10.8 10.5 8.4 OSO 5.6 5.6 9.3 85 1031.2(0.4/3h) 30 7/8 -- --
18:00 10.6 10.3 8.3 O 5.6 -- -- 86 1031.1(0.4/3h) 25 7/8 0/12h
--
17:00 11.1 10.1 8.3 ONO 9.3 9.3 11.1 83 1030.9(0.0/3h) 30 7/8 -- --
16:00 11.1 10.8 8.8 O 5.6 9.3 13.0 86 1030.8(-0.3/3h) 30 7/8 -- --
15:00 11.5 10.9 8.8 OSO 7.4 11.1 13.0 83 1030.7(-0.8/3h) 30 7/8 -- --
14:00 12.0 11.5 10.0 O 7.4 9.3 13.0 88 1030.8(-0.9/3h) 30 7/8 -- --
13:00 12.2 11.4 10.3 O 9.3 11.1 13.0 88 1031.1(-0.7/3h) 30 7/8 -- --
12:00 12.1 11 10.2 O 11.1 -- -- 88 1031.5(0.1/3h) 30 7/8 0/6h
--
11:00 12.3 11.5 10.8 O 9.3 11.1 13.0 91 1031.8(0.5/3h) 25 7/8 -- --
10:00 12.1 11 10.6 O 11.1 11.1 13.0 91 1031.8(1.0/3h) 20 7/8 -- --
09:00 11.8 10.9 10.7 O 9.3 9.3 13.0 93 1031.6(1.4/3h) 20 7/8 -- --
08:00 10.6 10.3 9.9 OSO 5.6 7.4 9.3 95 1031.3(1.2/3h) 15 7/8 -- --
07:00 10.1 9.7 9.2 OSO 5.6 7.4 9.3 94 1030.9(0.9/3h) 15 7/8 -- --
06:00 10.1 9.3 9.3 O 7.4 -- -- 95 1030.2(0.0/3h) 12 7/8 0/12h
--
05:00 10.6 9.5 9.5 O 9.3 9.3 11.1 93 1030.1(-0.4/3h) 12 6/8 -- --
04:00 11.4 10.4 10.1 O 9.3 9.3 13.0 92 1030(-0.4/3h) 12 6/8 -- --
03:00 10.8 10.1 9.4 OSO 7.4 7.4 9.3 91 1030.2(-0.2/3h) 12 8/8 -- --
02:00 10.8 10.1 9.4 SO 7.4 7.4 9.3 91 1030.5(0.2/3h) 12 8/8 -- --
01:00 10.6 9.8 9.7 SO 7.4 7.4 9.3 94 1030.4(0.1/3h) 12 8/8 -- --
00:00 10.6 10.3 9.4 SO 5.6 -- -- 92 1030.4(0.0/3h) 12 8/8 0/6h
0/24h
--

1 Coordinated Universal Time. Actuellement il est 11:00 locale et 09:00 UTC.

2 Le vent souffle depuis la direction indiquée vers la direction oposée.

3 Les rafales max. sont disponible 40 min après l'heure du relevé.

4 Pour les stations d'altitude (plus de 600m) le géopotentiel du niveau le plus proche de la pression obligatoire est indiqué.

5 Les stations disposant d'un diffuseur peuvent indiquer "trace". Cela signifie que des précipitations ont touchés le sol mais que la quantité est inférieure à 0.1 mm.

Récapitulatif de la journée
Température [°C] Vent [km/h] Ensoleillement4 [h] Precipitations totale5 [mm] Pression [Hpa]
Min1 Max.2 Moy.3 Max. Min Max.
9.9 12.3 8.4 13.0 0 h 0 min 0 1030.0 1031.8

1 Température minimale relevée entre 18:00 UTC la veille et 18:00 UTC le jour donné.

2 Température maximale relevée entre 06:00 UTC le jour donné et 06:00 UTC le lendemain.

3 Vent moyen de la journée basé sur les relevés horaires.

4 Ensoleillement en heures relevé entre 06:00 UTC la veille et 06:00 UTC le jour donné.

5 Précipitations totales tombées entre 06:00 UTC la jour donné et 06:00 UTC le lendemain.

Graphiques horaires